Latest Weather Observations for Mildura

IDN60801

Issued at 9:03 am EDT Friday 24 November 2017 (issued every 30 minutes, with the page automatically refreshed every 10 minutes)

About weather observations | Map of weather stations | Latest weather observations for NSW | Other Formats
Station Details ID: 076031 Name: MILDURA AIRPORT Lat: -34.24 Lon: 142.09 Height: 50.0 m
Data from the previous 72 hours. | See also: Recent months at Mildura
Date/Time
EDT
Temp
°C
App
Temp
°C
Dew
Point
°C
Rel
Hum
%
Delta-T
°C
Wind Press
QNH
hPa
Press
MSL
hPa
Rain since
9am
mm
Dir  Spd
km/h
Gust
km/h
Spd
kts
Gust
kts
24/08:30am 24.7 22.6 11.3 43 7.6 SW 13 19 7 10 1012.6 1012.5 0.0
24/08:00am 23.8 22.2 11.5 46 6.9 SSW 11 15 6 8 1012.5 1012.4 0.0
24/07:30am 22.2 21.1 11.9 52 5.8 SW 9 13 5 7 1012.3 1012.2 0.0
24/07:00am 20.6 19.7 11.5 56 5.0 SW 7 11 4 6 1012.1 1012.0 0.0
24/06:30am 19.9 19.0 11.4 58 4.7 SSW 7 11 4 6 1012.0 1011.9 0.0
24/06:00am 20.6 19.7 11.5 56 5.0 SSW 7 13 4 7 1011.7 1011.6 0.0
24/05:30am 20.9 19.7 11.5 55 5.2 SSW 9 15 5 8 1011.3 1011.2 0.0
24/05:00am 20.5 19.2 11.4 56 5.0 WSW 9 13 5 7 1011.4 1011.3 0.0
24/04:30am 20.2 19.5 11.9 59 4.6 W 7 11 4 6 1011.3 1011.2 0.0
24/04:00am 21.2 20.0 11.5 54 5.4 WSW 9 11 5 6 1011.1 1011.0 0.0
24/03:30am 22.4 21.1 11.2 49 6.2 WSW 9 13 5 7 1010.8 1010.7 0.0
24/03:00am 22.2 20.9 11.3 50 6.1 WSW 9 13 5 7 1011.0 1010.9 0.0
24/02:30am 21.3 20.6 11.9 55 5.3 SW 7 11 4 6 1011.3 1011.2 0.0
24/02:00am 21.3 20.6 11.9 55 5.3 WSW 7 9 4 5 1011.0 1010.9 0.0
24/01:30am 21.4 20.7 12.0 55 5.3 W 7 9 4 5 1011.2 1011.1 0.0
24/01:00am 21.0 20.4 11.6 55 5.2 SSW 6 7 3 4 1011.1 1011.0 0.0
24/12:30am 21.4 20.6 11.7 54 5.4 S 7 9 4 5 1011.4 1011.3 0.0
24/12:00am 22.0 20.7 11.4 51 5.9 WSW 9 13 5 7 1011.4 1011.3 0.0
 
Date/Time
EDT
Temp
°C
App
Temp
°C
Dew
Point
°C
Rel
Hum
%
Delta-T
°C
Wind Press
QNH
hPa
Press
MSL
hPa
Rain since
9am
mm
Dir  Spd
km/h
Gust
km/h
Spd
kts
Gust
kts
23/11:30pm 22.9 21.6 11.3 48 6.5 WSW 9 13 5 7 1011.4 1011.3 0.0
23/11:00pm 23.0 20.7 10.4 45 6.9 W 13 17 7 9 1011.3 1011.2 0.0
23/10:30pm 23.4 21.2 9.4 41 7.6 W 11 19 6 10 1011.4 1011.3 0.0
23/10:00pm 24.1 21.0 8.9 38 8.2 W 15 20 8 11 1011.0 1010.9 0.0
23/09:30pm 25.4 22.1 8.0 33 9.3 W 15 26 8 14 1010.3 1010.2 0.0
23/09:00pm 26.0 23.5 8.0 32 9.7 W 11 15 6 8 1009.8 1009.7 0.0
23/08:30pm 26.9 25.0 7.4 29 10.4 W 7 11 4 6 1009.3 1009.2 0.0
23/08:00pm 27.7 25.2 6.5 26 11.2 WSW 9 11 5 6 1009.2 1009.1 0.0
23/07:30pm 28.3 25.3 5.8 24 11.8 WSW 11 17 6 9 1008.8 1008.7 0.0
23/07:00pm 28.7 26.2 6.7 25 11.7 W 9 13 5 7 1008.7 1008.6 0.0
23/06:30pm 29.5 27.1 6.8 24 12.2 WNW 9 13 5 7 1008.6 1008.5 0.0
23/06:00pm 29.6 27.2 6.9 24 12.2 NNW 9 15 5 8 1008.6 1008.5 0.0
23/05:30pm 29.6 27.7 7.5 25 12.0 NW 7 11 4 6 1008.4 1008.3 0.0
23/05:00pm 29.3 26.4 6.7 24 12.1 WNW 11 15 6 8 1008.8 1008.7 0.0
23/04:30pm 29.0 25.3 6.4 24 12.0 W 15 22 8 12 1009.2 1009.1 0.0
23/04:00pm 29.9 25.6 7.2 24 12.3 W 19 30 10 16 1009.3 1009.2 0.0
23/03:30pm 30.3 26.0 6.9 23 12.6 WNW 19 30 10 16 1009.5 1009.4 0.0
23/03:00pm 30.6 27.3 6.5 22 12.9 WNW 13 20 7 11 1009.5 1009.4 0.0
23/02:30pm 31.0 26.9 6.1 21 13.3 WNW 17 28 9 15 1009.6 1009.5 0.0
23/02:00pm 30.8 27.7 7.3 23 12.8 WNW 13 22 7 12 1009.8 1009.7 0.0
23/01:30pm 30.8 25.8 6.6 22 13.0 NW 22 33 12 18 1009.9 1009.8 0.0
23/01:00pm 32.0 27.1 7.0 21 13.6 NW 22 33 12 18 1010.0 1009.9 0.0
23/12:30pm 31.6 27.0 6.6 21 13.5 NW 20 33 11 18 1010.2 1010.1 0.0
23/12:00pm 31.1 26.8 6.9 22 13.1 NNW 19 32 10 17 1010.4 1010.3 0.0
23/11:30am 32.0 25.7 5.5 19 14.1 NNW 28 43 15 23 1010.4 1010.3 0.0
23/11:00am 30.9 24.5 5.3 20 13.5 NNW 28 43 15 23 1010.3 1010.2 0.0
23/10:43am 31.0 24.0 3.9 18 13.9 NNW 30 48 16 26 1010.4 1010.3 0.0
23/10:30am 30.7 24.9 4.4 19 13.6 NNW 24 37 13 20 1010.3 1010.2 0.0
23/10:00am 29.3 24.5 5.4 22 12.5 N 20 28 11 15 1010.3 1010.2 0.0
23/09:30am 27.5 22.5 4.5 23 11.7 NNE 20 24 11 13 1010.1 1010.0 0.0
23/09:00am 25.8 21.4 4.9 26 10.6 NNE 17 20 9 11 1009.9 1009.8 0.0
23/08:30am 24.3 20.0 5.1 29 9.7 NNE 17 20 9 11 1009.8 1009.7 0.0
23/08:00am 23.5 19.5 4.9 30 9.3 NE 15 19 8 10 1009.7 1009.6 0.0
23/07:30am 23.0 18.3 5.0 31 9.0 NNE 19 24 10 13 1009.6 1009.5 0.0
23/07:00am 22.2 18.3 5.2 33 8.5 NE 15 19 8 10 1009.3 1009.2 0.0
23/06:30am 19.7 18.4 9.9 53 5.3 NE 7 9 4 5 1009.0 1008.9 0.0
23/06:00am 19.0 17.2 7.1 46 6.0 NE 6 6 3 3 1008.7 1008.6 0.0
23/05:30am 19.3 17.8 6.8 44 6.3 N 4 7 2 4 1008.6 1008.5 0.0
23/05:00am 19.9 17.7 5.5 39 7.1 NW 6 9 3 5 1008.4 1008.3 0.0
23/04:30am 22.2 19.3 4.7 32 8.6 NNW 9 17 5 9 1008.2 1008.1 0.0
23/04:00am 23.4 20.0 3.9 28 9.6 NNE 11 15 6 8 1008.1 1008.0 0.0
23/03:30am 22.1 18.5 5.1 33 8.4 NE 13 17 7 9 1008.0 1007.9 0.0
23/03:00am 21.0 18.3 5.8 37 7.6 ENE 9 11 5 6 1008.3 1008.2 0.0
23/02:30am 22.0 18.8 5.0 33 8.4 NE 11 11 6 6 1008.4 1008.3 0.0
23/02:00am 22.0 19.4 6.3 36 8.0 ENE 9 11 5 6 1008.6 1008.5 0.0
23/01:30am 22.1 19.9 6.3 36 8.0 NE 7 9 4 5 1008.9 1008.8 0.0
23/01:00am 22.6 20.4 6.0 34 8.4 ENE 7 9 4 5 1009.0 1008.9 0.0
23/12:30am 23.7 21.3 6.9 34 8.7 ENE 9 13 5 7 1009.3 1009.2 0.0
23/12:00am 24.2 22.7 10.5 42 7.6 ENE 9 9 5 5 1009.4 1009.3 0.0
 
Date/Time
EDT
Temp
°C
App
Temp
°C
Dew
Point
°C
Rel
Hum
%
Delta-T
°C
Wind Press
QNH
hPa
Press
MSL
hPa
Rain since
9am
mm
Dir  Spd
km/h
Gust
km/h
Spd
kts
Gust
kts
22/11:30pm 25.3 23.7 8.7 35 9.0 ENE 7 7 4 4 1009.5 1009.4 0.0
22/11:00pm 25.9 24.2 8.4 33 9.5 E 7 9 4 5 1009.7 1009.6 0.0
22/10:30pm 25.3 23.9 9.6 37 8.6 E 7 9 4 5 1009.7 1009.6 0.0
22/10:00pm 25.8 24.3 8.3 33 9.4 ENE 6 7 3 4 1009.7 1009.6 0.0
22/09:30pm 26.5 24.8 7.5 30 10.1 E 6 7 3 4 1009.6 1009.5 0.0
22/09:00pm 27.4 25.8 7.8 29 10.6 E 6 6 3 3 1009.5 1009.4 0.0
22/08:30pm 29.6 27.0 4.3 20 13.0 E 7 7 4 4 1009.3 1009.2 0.0
22/08:00pm 31.4 28.8 4.2 18 14.1 ENE 7 11 4 6 1009.2 1009.1 0.0
22/07:30pm 32.8 28.2 1.8 14 15.6 E 15 20 8 11 1008.9 1008.8 0.0
22/07:00pm 33.6 28.8 0.3 12 16.4 NE 15 19 8 10 1008.7 1008.6 0.0
22/06:30pm 34.0 29.6 0.6 12 16.6 NE 13 19 7 10 1008.8 1008.7 0.0
22/06:00pm 33.9 29.9 0.5 12 16.6 E 11 19 6 10 1008.9 1008.8 0.0
22/05:30pm 33.8 29.2 1.6 13 16.2 NNE 15 26 8 14 1009.1 1009.0 0.0
22/05:00pm 33.9 30.1 1.6 13 16.3 NNE 11 20 6 11 1009.4 1009.3 0.0
22/04:30pm 33.2 28.2 1.1 13 16.0 N 17 26 9 14 1009.8 1009.7 0.0
22/04:00pm 33.5 29.2 3.3 15 15.6 ENE 15 20 8 11 1010.1 1010.0 0.0
22/03:30pm 33.0 28.3 0.9 13 15.9 NE 15 22 8 12 1010.6 1010.5 0.0
22/03:00pm 34.1 30.9 0.7 12 16.6 N 7 15 4 8 1011.1 1011.0 0.0
22/02:30pm 34.0 30.8 2.8 14 16.1 ENE 9 20 5 11 1011.5 1011.4 0.0
22/02:00pm 33.0 27.9 0.9 13 15.9 NNE 17 32 9 17 1012.1 1012.0 0.0
22/01:30pm 33.8 29.0 2.6 14 16.0 NE 17 28 9 15 1012.6 1012.5 0.0
22/01:00pm 33.3 28.6 3.2 15 15.5 NNE 17 35 9 19 1013.0 1012.9 0.0
22/12:30pm 32.3 28.7 5.0 18 14.4 NW 13 24 7 13 1013.4 1013.3 0.0
22/12:00pm 32.8 28.4 4.6 17 14.8 N 17 22 9 12 1013.8 1013.7 0.0
22/11:30am 32.0 26.5 3.9 17 14.5 N 22 33 12 18 1014.2 1014.1 0.0
22/11:00am 31.4 26.5 5.0 19 13.9 N 20 32 11 17 1014.3 1014.2 0.0
22/10:30am 30.7 25.7 4.4 19 13.6 N 20 28 11 15 1014.5 1014.4 0.0
22/10:00am 30.4 23.9 4.9 20 13.3 NNE 28 37 15 20 1014.7 1014.6 0.0
22/09:30am 29.3 23.7 5.4 22 12.5 N 24 35 13 19 1014.7 1014.6 0.0
22/09:00am 28.4 22.1 5.9 24 11.8 NNE 28 33 15 18 1014.6 1014.5 0.0
22/08:30am 26.9 22.4 6.9 28 10.6 NNE 20 30 11 16 1014.5 1014.4 0.0
22/08:00am 25.4 20.4 6.6 30 9.8 NNE 22 26 12 14 1014.3 1014.2 0.0
22/07:30am 23.7 19.7 6.5 33 8.9 NNE 17 20 9 11 1014.1 1014.0 0.0
22/07:00am 22.1 18.3 5.9 35 8.2 NE 15 19 8 10 1013.9 1013.8 0.0
22/06:30am 20.5 17.1 6.1 39 7.2 NE 13 17 7 9 1013.7 1013.6 0.0
22/06:00am 20.9 17.4 5.3 36 7.7 NE 13 17 7 9 1013.6 1013.5 0.0
22/05:30am 21.1 17.9 5.1 35 7.9 NE 11 13 6 7 1013.4 1013.3 0.0
22/05:00am 21.9 18.2 4.5 32 8.5 NE 13 20 7 11 1013.3 1013.2 0.0
22/04:30am 22.1 17.9 3.7 30 8.9 ENE 15 20 8 11 1013.1 1013.0 0.0
22/04:00am 21.8 17.2 3.9 31 8.7 ENE 17 20 9 11 1013.1 1013.0 0.0
22/03:30am 22.0 17.5 4.1 31 8.7 ENE 17 20 9 11 1013.2 1013.1 0.0
22/03:00am 22.5 18.4 4.1 30 9.0 ENE 15 20 8 11 1013.3 1013.2 0.0
22/02:30am 22.5 18.6 3.6 29 9.2 ENE 13 17 7 9 1013.5 1013.4 0.0
22/02:00am 24.3 20.0 3.0 25 10.3 ENE 15 20 8 11 1013.7 1013.6 0.0
22/01:30am 24.8 19.9 2.3 23 10.8 ENE 17 20 9 11 1014.0 1013.9 0.0
22/01:00am 25.1 20.7 2.5 23 10.9 ENE 15 22 8 12 1014.1 1014.0 0.0
22/12:30am 24.9 20.9 3.0 24 10.7 ENE 13 17 7 9 1014.3 1014.2 0.0
22/12:00am 24.6 20.7 3.3 25 10.4 ENE 13 19 7 10 1014.4 1014.3 0.0
 
Date/Time
EDT
Temp
°C
App
Temp
°C
Dew
Point
°C
Rel
Hum
%
Delta-T
°C
Wind Press
QNH
hPa
Press
MSL
hPa
Rain since
9am
mm
Dir  Spd
km/h
Gust
km/h
Spd
kts
Gust
kts
21/11:30pm 24.9 21.1 4.1 26 10.3 E 13 19 7 10 1014.4 1014.3 0.0
21/11:00pm 24.8 21.5 4.5 27 10.2 E 11 15 6 8 1014.3 1014.2 0.0
21/10:30pm 25.7 22.5 5.3 27 10.4 E 11 15 6 8 1014.3 1014.2 0.0
21/10:00pm 26.2 23.1 5.7 27 10.6 E 11 13 6 7 1014.0 1013.9 0.0
21/09:30pm 27.2 24.0 4.9 24 11.4 E 11 13 6 7 1013.9 1013.8 0.0
21/09:00pm 28.2 24.5 4.5 22 12.1 E 13 15 7 8 1013.6 1013.5 0.0
21/08:30pm 29.8 26.0 3.7 19 13.3 E 13 20 7 11 1013.4 1013.3 0.0
21/08:00pm 31.6 27.4 3.6 17 14.4 ENE 15 22 8 12 1013.2 1013.1 0.0
21/07:30pm 33.0 27.9 0.9 13 15.9 ENE 17 24 9 13 1013.0 1012.9 0.0
21/07:00pm 33.4 28.0 1.3 13 16.1 NE 19 28 10 15 1012.8 1012.7 0.0
21/06:30pm 33.8 28.8 1.6 13 16.2 E 17 24 9 13 1012.8 1012.7 0.0
21/06:00pm 33.9 28.4 1.6 13 16.3 ENE 20 32 11 17 1012.9 1012.8 0.0
21/05:30pm 34.2 28.0 1.9 13 16.4 ENE 24 37 13 20 1013.0 1012.9 0.0
21/05:00pm 34.4 29.3 0.9 12 16.8 NE 17 32 9 17 1013.4 1013.3 0.0
21/04:30pm 34.8 29.4 2.3 13 16.7 ENE 20 30 11 16 1013.4 1013.3 0.0
21/04:00pm 34.6 30.5 2.2 13 16.6 NE 13 35 7 19 1013.9 1013.8 0.0
21/03:30pm 34.1 28.9 3.8 15 15.9 NE 20 30 11 16 1014.2 1014.1 0.0
21/03:00pm 33.6 29.9 4.3 16 15.4 NE 13 26 7 14 1014.5 1014.4 0.0
21/02:30pm 32.7 25.8 2.7 15 15.3 NNE 28 37 15 20 1015.1 1015.0 0.0
21/02:00pm 33.0 27.1 2.0 14 15.6 NE 22 35 12 19 1015.6 1015.5 0.0
21/01:30pm 32.7 27.3 2.7 15 15.3 NE 20 32 11 17 1016.0 1015.9 0.0
21/01:00pm 32.4 27.7 3.4 16 14.9 NNE 17 28 9 15 1016.5 1016.4 0.0
21/12:30pm 31.5 26.3 2.7 16 14.6 ENE 19 30 10 16 1017.0 1016.9 0.0
21/12:00pm 31.4 26.5 5.0 19 13.8 NE 20 32 11 17 1017.5 1017.4 0.0
21/11:30am 31.1 27.2 6.9 22 13.1 NE 17 33 9 18 1017.9 1017.7 0.0
21/11:00am 30.6 26.0 6.5 22 12.9 NNE 20 32 11 17 1018.1 1017.9 0.0
21/10:30am 29.5 24.6 6.8 24 12.2 NNE 22 32 12 17 1018.2 1018.0 0.0
21/10:00am 28.6 24.5 7.8 27 11.3 NNE 19 24 10 13 1018.4 1018.2 0.0
21/09:30am 27.6 22.8 7.5 28 10.8 NNE 22 28 12 15 1018.4 1018.2 0.0

Other Formats:

Comma delimited format used in spreadsheet applications
http://www.bom.gov.au/fwo/IDN60801/IDN60801.94693.axf

JavaScript Object Notation format (JSON) in row-major order
http://www.bom.gov.au/fwo/IDN60801/IDN60801.94693.json